createdAt,value
2019-03-04T00:01:06.057Z,56.93
2019-03-04T00:03:54.944Z,56.81
2019-03-04T00:06:34.827Z,56.77
2019-03-04T00:09:23.666Z,56.81
2019-03-04T00:12:12.507Z,56.79
2019-03-04T00:15:01.309Z,56.59
2019-03-04T00:17:50.161Z,56.52
2019-03-04T00:20:38.999Z,56.47
2019-03-04T00:23:27.812Z,56.48
2019-03-04T00:26:16.707Z,56.48
2019-03-04T00:29:05.644Z,56.14
2019-03-04T00:31:54.516Z,56.21
2019-03-04T00:34:43.362Z,56.19
2019-03-04T00:37:32.183Z,56.13
2019-03-04T00:40:21.078Z,56.07
2019-03-04T00:43:09.947Z,56.01
2019-03-04T00:45:58.781Z,55.65
2019-03-04T00:48:47.605Z,55.76
2019-03-04T00:51:36.454Z,55.39
2019-03-04T00:54:25.342Z,55.18
2019-03-04T00:57:14.137Z,55.49
2019-03-04T01:03:10.675Z,55.17
2019-03-04T01:05:52.435Z,54.74
2019-03-04T01:08:41.252Z,54.76
2019-03-04T01:11:30.173Z,54.75
2019-03-04T01:14:18.986Z,54.30
2019-03-04T01:17:07.898Z,54.31
2019-03-04T01:19:56.709Z,54.18
2019-03-04T01:22:46.024Z,53.95
2019-03-04T01:25:34.830Z,54.01
2019-03-04T01:28:23.668Z,53.71
2019-03-04T01:31:12.541Z,54.15
2019-03-04T01:34:01.361Z,53.78
2019-03-04T01:36:50.185Z,53.83
2019-03-04T01:39:39.017Z,54.12
2019-03-04T01:42:27.869Z,54.06
2019-03-04T01:48:45.539Z,54.05
2019-03-04T01:51:34.363Z,54.16
2019-03-04T01:54:23.228Z,54.03
2019-03-04T01:57:12.041Z,54.16
2019-03-04T02:00:00.878Z,54.16
2019-03-04T02:02:49.781Z,54.32
2019-03-04T02:05:31.603Z,54.43
2019-03-04T02:08:20.450Z,54.67
2019-03-04T02:11:09.247Z,54.54
2019-03-04T02:13:58.070Z,54.59
2019-03-04T02:16:46.910Z,54.70
2019-03-04T02:19:35.707Z,54.82
2019-03-04T02:22:24.623Z,54.93
2019-03-04T02:25:34.334Z,54.84
2019-03-04T02:28:23.187Z,54.90
2019-03-04T02:31:11.993Z,54.84
2019-03-04T02:34:00.817Z,55.05
2019-03-04T02:36:49.662Z,54.82
2019-03-04T02:39:38.489Z,54.78
2019-03-04T02:42:27.321Z,54.78
2019-03-04T02:45:37.062Z,54.79
2019-03-04T02:48:25.962Z,54.84
2019-03-04T02:51:14.862Z,54.65
2019-03-04T02:54:03.665Z,54.59
2019-03-04T02:56:52.491Z,54.42
2019-03-04T02:59:41.317Z,54.27
2019-03-04T03:02:30.233Z,54.33
2019-03-04T03:05:19.131Z,54.09
2019-03-04T03:08:00.456Z,53.96
2019-03-04T03:10:49.268Z,53.63
2019-03-04T03:13:38.113Z,53.61
2019-03-04T03:16:26.960Z,52.97
2019-03-04T03:19:15.758Z,53.36
2019-03-04T03:22:04.737Z,52.86
2019-03-04T03:24:53.584Z,52.84
2019-03-04T03:27:42.429Z,52.35
2019-03-04T03:30:31.232Z,52.53
2019-03-04T03:33:20.088Z,52.54
2019-03-04T03:36:08.903Z,52.60
2019-03-04T03:38:57.764Z,52.74
2019-03-04T03:41:46.556Z,52.71
2019-03-04T03:44:35.411Z,52.50
2019-03-04T03:47:24.218Z,52.70
2019-03-04T03:53:28.780Z,53.10
2019-03-04T03:56:17.637Z,53.07
2019-03-04T03:59:06.540Z,53.41
2019-03-04T04:01:55.421Z,53.40
2019-03-04T04:04:36.806Z,53.59
2019-03-04T04:07:25.654Z,53.83
2019-03-04T04:10:35.369Z,53.22
2019-03-04T04:13:24.213Z,52.80
2019-03-04T04:16:13.048Z,52.67
2019-03-04T04:19:01.926Z,52.67
2019-03-04T04:21:50.829Z,52.65
2019-03-04T04:24:39.631Z,52.51
2019-03-04T04:27:28.590Z,52.94
2019-03-04T04:33:37.558Z,52.32
2019-03-04T04:36:26.344Z,52.09
2019-03-04T04:39:15.188Z,52.01
2019-03-04T04:42:04.063Z,51.78
2019-03-04T04:44:52.962Z,51.74
2019-03-04T04:48:01.106Z,51.50
2019-03-04T04:50:49.946Z,51.61
2019-03-04T04:53:38.803Z,51.33
2019-03-04T04:56:27.609Z,51.14
2019-03-04T04:59:16.467Z,51.13
2019-03-04T05:02:05.419Z,51.26
2019-03-04T05:04:47.356Z,51.30
2019-03-04T05:07:36.209Z,51.46
2019-03-04T05:10:25.328Z,51.40
2019-03-04T05:13:14.179Z,51.53
2019-03-04T05:16:03.033Z,51.73
2019-03-04T05:18:51.871Z,51.84
2019-03-04T05:21:40.711Z,52.25
2019-03-04T05:24:29.762Z,52.05
2019-03-04T05:27:18.636Z,52.37
2019-03-04T05:30:28.371Z,52.49
2019-03-04T05:33:17.197Z,52.44
2019-03-04T05:36:06.008Z,52.51
2019-03-04T05:38:54.836Z,52.60
2019-03-04T05:41:43.624Z,52.58
2019-03-04T05:44:32.475Z,52.74
2019-03-04T05:47:21.299Z,52.64
2019-03-04T05:50:31.043Z,52.78
2019-03-04T05:53:19.893Z,52.68
2019-03-04T05:56:08.715Z,52.35
2019-03-04T05:58:57.525Z,52.51
2019-03-04T06:02:07.281Z,51.71
2019-03-04T06:04:49.069Z,51.87
2019-03-04T06:10:47.371Z,51.58
2019-03-04T06:13:36.215Z,51.14
2019-03-04T06:16:25.047Z,51.06
2019-03-04T06:19:13.865Z,50.71
2019-03-04T06:22:02.707Z,50.60
2019-03-04T06:24:51.513Z,50.35
2019-03-04T06:27:40.408Z,47.04
2019-03-04T06:30:49.384Z,46.85
2019-03-04T06:33:39.146Z,47.77
2019-03-04T06:36:27.969Z,48.58
2019-03-04T06:39:16.860Z,49.15
2019-03-04T06:42:05.709Z,49.68
2019-03-04T06:44:54.504Z,50.34
2019-03-04T06:47:43.438Z,51.13
2019-03-04T06:50:52.165Z,51.46
2019-03-04T06:54:19.713Z,52.07
2019-03-04T06:57:29.463Z,53.31
2019-03-04T07:00:39.222Z,55.65
2019-03-04T07:03:28.059Z,57.39
2019-03-04T07:06:09.463Z,57.34
2019-03-04T07:08:53.151Z,58.08
2019-03-04T07:11:41.958Z,58.41
2019-03-04T07:14:30.889Z,59.27
2019-03-04T07:17:19.732Z,59.45
2019-03-04T07:20:27.873Z,59.89
2019-03-04T07:23:16.711Z,60.30
2019-03-04T07:26:05.532Z,60.66
2019-03-04T07:28:54.437Z,60.89
2019-03-04T07:31:43.366Z,60.77
2019-03-04T07:34:33.868Z,61.48
2019-03-04T07:37:22.860Z,61.59
2019-03-04T07:40:30.991Z,62.12
2019-03-04T07:43:19.902Z,61.91
2019-03-04T07:46:08.763Z,60.35
2019-03-04T07:48:57.568Z,60.54
2019-03-04T07:51:46.392Z,58.92
2019-03-04T07:54:35.234Z,58.53
2019-03-04T07:57:24.063Z,57.01
2019-03-04T08:00:13.234Z,55.97
2019-03-04T08:03:02.086Z,55.32
2019-03-04T08:05:44.228Z,54.66
2019-03-04T08:08:44.558Z,54.62
2019-03-04T08:11:54.306Z,54.44
2019-03-04T08:14:43.113Z,53.82
2019-03-04T08:17:31.942Z,53.19
2019-03-04T08:20:13.688Z,53.53
2019-03-04T08:23:02.577Z,53.32
2019-03-04T08:25:51.510Z,52.20
2019-03-04T08:28:59.627Z,52.79
2019-03-04T08:31:48.648Z,52.06
2019-03-04T08:34:37.545Z,51.34
2019-03-04T08:37:26.396Z,51.85
2019-03-04T08:43:31.652Z,51.16
2019-03-04T08:46:20.570Z,51.17
2019-03-04T08:49:09.505Z,51.96
2019-03-04T08:51:58.361Z,51.25
2019-03-04T08:54:47.245Z,52.08
2019-03-04T08:57:36.074Z,51.40
2019-03-04T09:00:45.845Z,50.27
2019-03-04T09:03:34.773Z,51.08
2019-03-04T09:06:16.235Z,50.49
2019-03-04T09:09:25.955Z,50.32
2019-03-04T09:12:14.990Z,50.50
2019-03-04T09:18:32.790Z,47.96
2019-03-04T09:21:21.646Z,47.51
2019-03-04T09:24:10.443Z,48.85
2019-03-04T09:26:59.278Z,47.56
2019-03-04T09:29:40.908Z,46.74
2019-03-04T09:32:29.709Z,46.18
2019-03-04T09:35:18.925Z,46.03
2019-03-04T09:38:07.857Z,46.58
2019-03-04T09:40:56.697Z,46.10
2019-03-04T09:43:45.651Z,46.13
2019-03-04T09:46:34.461Z,45.49
2019-03-04T09:49:23.321Z,45.35
2019-03-04T09:52:12.236Z,44.97
2019-03-04T09:55:01.097Z,45.50
2019-03-04T09:57:50.022Z,44.63
2019-03-04T10:00:59.762Z,45.07
2019-03-04T10:04:09.533Z,44.72
2019-03-04T10:07:19.449Z,44.76
2019-03-04T10:10:29.347Z,44.45
2019-03-04T10:16:29.909Z,45.00
2019-03-04T10:19:39.608Z,44.98
2019-03-04T10:22:49.443Z,45.12
2019-03-04T10:25:59.200Z,44.80
2019-03-04T10:29:08.912Z,45.07
2019-03-04T10:32:18.740Z,44.40
2019-03-04T10:35:28.514Z,44.22
2019-03-04T10:38:56.058Z,44.13
2019-03-04T10:42:05.858Z,44.48
2019-03-04T10:45:33.369Z,45.21
2019-03-04T10:48:22.242Z,44.76
2019-03-04T10:51:11.081Z,44.35
2019-03-04T10:54:00.134Z,44.70
2019-03-04T10:59:58.500Z,45.23
2019-03-04T11:02:47.371Z,45.07
2019-03-04T11:05:36.216Z,44.97
2019-03-04T11:08:25.047Z,45.23
2019-03-04T11:11:14.025Z,45.62
2019-03-04T11:14:02.925Z,45.76
2019-03-04T11:16:51.835Z,45.94
2019-03-04T11:19:40.699Z,45.71
2019-03-04T11:22:22.277Z,45.41
2019-03-04T11:25:11.256Z,45.77
2019-03-04T11:27:53.145Z,45.61
2019-03-04T11:30:42.083Z,45.70
2019-03-04T11:33:31.087Z,45.67
2019-03-04T11:36:20.092Z,44.99
2019-03-04T11:39:47.261Z,45.48
2019-03-04T11:42:36.273Z,45.15
2019-03-04T11:45:25.157Z,45.83
2019-03-04T11:48:14.013Z,47.97
2019-03-04T11:51:02.930Z,50.34
2019-03-04T11:53:51.775Z,52.34
2019-03-04T11:56:40.652Z,53.36
2019-03-04T11:59:29.581Z,54.93
2019-03-04T12:01:59.180Z,56.25
2019-03-04T12:04:48.114Z,57.77
2019-03-04T12:07:37.051Z,58.75
2019-03-04T12:10:25.935Z,59.41
2019-03-04T12:13:14.868Z,60.45
2019-03-04T12:16:03.875Z,60.99
2019-03-04T12:18:52.801Z,61.66
2019-03-04T12:21:23.264Z,62.43
2019-03-04T12:23:52.846Z,63.04
2019-03-04T12:26:22.432Z,64.00
2019-03-04T12:28:52.490Z,64.73
2019-03-04T12:31:23.412Z,64.66
2019-03-04T12:33:52.955Z,65.23
2019-03-04T12:36:22.538Z,64.82
2019-03-04T12:38:52.099Z,65.18
2019-03-04T12:41:21.742Z,66.06
2019-03-04T12:43:51.264Z,65.91
2019-03-04T12:46:20.739Z,65.98
2019-03-04T12:48:50.213Z,64.21
2019-03-04T12:51:23.268Z,64.39
2019-03-04T12:53:50.973Z,63.23
2019-03-04T12:56:20.447Z,62.10
2019-03-04T12:58:50.073Z,61.23
2019-03-04T13:01:19.722Z,61.92
2019-03-04T13:03:51.228Z,61.24
2019-03-04T13:06:20.786Z,60.75
2019-03-04T13:08:50.344Z,61.23
2019-03-04T13:11:39.210Z,60.25
2019-03-04T13:14:27.679Z,61.07
2019-03-04T13:17:16.615Z,61.42
2019-03-04T13:20:26.325Z,63.35
2019-03-04T13:23:15.557Z,61.49
2019-03-04T13:26:04.490Z,63.04
2019-03-04T13:28:53.426Z,63.08
2019-03-04T13:31:42.367Z,60.77
2019-03-04T13:34:31.263Z,60.89
2019-03-04T13:37:20.160Z,61.25
2019-03-04T13:40:29.938Z,60.69
2019-03-04T13:43:18.845Z,60.55
2019-03-04T13:46:07.762Z,58.75
2019-03-04T13:48:56.704Z,58.84
2019-03-04T13:54:41.280Z,56.92
2019-03-04T13:57:30.118Z,55.01
2019-03-04T14:00:39.892Z,56.17
2019-03-04T14:03:28.802Z,56.35
2019-03-04T14:06:17.678Z,56.92
2019-03-04T14:09:06.650Z,54.79
2019-03-04T14:11:55.638Z,55.62
2019-03-04T14:14:37.107Z,54.57
2019-03-04T14:17:26.101Z,53.36
2019-03-04T14:20:15.038Z,52.79
2019-03-04T14:23:03.917Z,52.35
2019-03-04T14:25:52.860Z,52.73
2019-03-04T14:28:41.859Z,52.45
2019-03-04T14:31:11.412Z,52.53
2019-03-04T14:33:40.892Z,51.56
2019-03-04T14:36:10.646Z,49.90
2019-03-04T14:38:40.215Z,50.95
2019-03-04T14:41:09.907Z,51.31
2019-03-04T14:43:39.441Z,49.68
2019-03-04T14:46:11.133Z,49.88
2019-03-04T14:48:40.750Z,49.64
2019-03-04T14:51:10.373Z,50.38
2019-03-04T14:53:39.873Z,49.54
2019-03-04T14:56:09.351Z,50.14
2019-03-04T14:58:38.877Z,50.01
2019-03-04T15:01:11.404Z,50.32
2019-03-04T15:03:40.953Z,49.84
2019-03-04T15:06:10.480Z,49.38
2019-03-04T15:08:39.983Z,49.40
2019-03-04T15:11:09.533Z,49.32
2019-03-04T15:13:39.111Z,49.82
2019-03-04T15:16:08.679Z,47.93
2019-03-04T15:18:38.195Z,48.17
2019-03-04T15:21:08.389Z,47.98
2019-03-04T15:23:37.972Z,48.86
2019-03-04T15:26:07.599Z,49.22
2019-03-04T15:28:37.186Z,49.08
2019-03-04T15:31:06.877Z,49.18
2019-03-04T15:33:36.450Z,48.33
2019-03-04T15:36:06.058Z,47.45
2019-03-04T15:38:35.616Z,47.81
2019-03-04T15:41:05.229Z,46.94
2019-03-04T15:43:34.832Z,45.25
2019-03-04T15:46:04.608Z,44.92
2019-03-04T15:48:34.187Z,45.49
2019-03-04T15:51:04.001Z,44.23
2019-03-04T15:53:33.487Z,44.02
2019-03-04T15:56:03.040Z,44.20
2019-03-04T15:58:33.276Z,44.46
2019-03-04T16:01:03.172Z,43.79
2019-03-04T16:03:32.948Z,44.23
2019-03-04T16:06:02.636Z,44.88
2019-03-04T16:08:32.285Z,44.00
2019-03-04T16:11:01.799Z,44.26
2019-03-04T16:13:31.520Z,44.68
2019-03-04T16:16:01.126Z,44.14
2019-03-04T16:18:30.574Z,44.80
2019-03-04T16:21:00.174Z,44.09
2019-03-04T16:23:29.778Z,44.29
2019-03-04T16:26:02.580Z,44.38
2019-03-04T16:28:32.175Z,44.45
2019-03-04T16:31:01.648Z,44.57
2019-03-04T16:33:31.116Z,45.25
2019-03-04T16:36:00.679Z,45.04
2019-03-04T16:38:30.307Z,44.50
2019-03-04T16:40:59.908Z,43.96
2019-03-04T16:43:29.375Z,43.63
2019-03-04T16:45:58.882Z,44.14
2019-03-04T16:48:28.482Z,43.04
2019-03-04T16:50:58.121Z,42.08
2019-03-04T16:53:35.489Z,42.52
2019-03-04T16:56:05.123Z,41.67
2019-03-04T16:58:36.144Z,41.56
2019-03-04T17:01:05.871Z,41.72
2019-03-04T17:03:35.390Z,42.17
2019-03-04T17:06:05.040Z,41.85
2019-03-04T17:08:34.620Z,41.97
2019-03-04T17:11:04.137Z,42.25
2019-03-04T17:13:33.608Z,43.09
2019-03-04T17:16:03.794Z,42.99
2019-03-04T17:18:33.336Z,43.68
2019-03-04T17:21:02.945Z,44.17
2019-03-04T17:23:32.514Z,43.69
2019-03-04T17:26:02.002Z,44.42
2019-03-04T17:28:31.594Z,45.16
2019-03-04T17:31:01.287Z,45.09
2019-03-04T17:33:30.874Z,45.29
2019-03-04T17:36:00.391Z,46.07
2019-03-04T17:38:30.051Z,46.24
2019-03-04T17:40:59.653Z,46.70
2019-03-04T17:43:29.301Z,46.59
2019-03-04T17:45:58.962Z,46.96
2019-03-04T17:48:28.750Z,46.83
2019-03-04T17:50:58.272Z,47.72
2019-03-04T17:53:27.807Z,47.25
2019-03-04T17:55:57.413Z,47.26
2019-03-04T17:58:27.152Z,47.49
2019-03-04T18:00:57.540Z,47.01
2019-03-04T18:03:27.137Z,47.37
2019-03-04T18:05:56.751Z,47.34
2019-03-04T18:08:26.283Z,47.15
2019-03-04T18:10:55.869Z,47.38
2019-03-04T18:13:25.570Z,48.47
2019-03-04T18:15:55.249Z,47.38
2019-03-04T18:18:24.942Z,47.04
2019-03-04T18:20:54.781Z,47.17
2019-03-04T18:23:24.458Z,47.13
2019-03-04T18:26:10.535Z,47.00
2019-03-04T18:29:11.905Z,46.86
2019-03-04T18:31:58.265Z,47.36
2019-03-04T18:34:56.721Z,47.28
2019-03-04T18:37:50.125Z,47.43
2019-03-04T18:40:50.067Z,47.83
2019-03-04T18:43:52.766Z,47.57
2019-03-04T18:46:57.041Z,47.90
2019-03-04T18:49:26.541Z,47.68
2019-03-04T18:51:56.032Z,47.75
2019-03-04T18:54:25.562Z,47.70
2019-03-04T18:56:55.207Z,47.78
2019-03-04T18:59:24.858Z,48.26
2019-03-04T19:01:54.438Z,48.01
2019-03-04T19:04:24.024Z,47.90
2019-03-04T19:06:53.646Z,48.25
2019-03-04T19:09:23.276Z,48.11
2019-03-04T19:11:52.887Z,48.08
2019-03-04T19:14:22.558Z,48.38
2019-03-04T19:16:52.225Z,48.17
2019-03-04T19:19:21.769Z,48.38
2019-03-04T19:21:53.363Z,48.33
2019-03-04T19:24:22.927Z,48.94
2019-03-04T19:26:52.428Z,48.89
2019-03-04T19:29:22.099Z,49.09
2019-03-04T19:31:51.716Z,49.02
2019-03-04T19:34:21.334Z,48.82
2019-03-04T19:36:50.911Z,48.68
2019-03-04T19:39:20.566Z,48.94
2019-03-04T19:41:50.146Z,48.95
2019-03-04T19:44:19.609Z,49.01
2019-03-04T19:46:49.388Z,49.12
2019-03-04T19:49:18.919Z,49.43
2019-03-04T19:51:48.562Z,49.01
2019-03-04T19:54:18.184Z,49.40
2019-03-04T19:56:49.380Z,49.40
2019-03-04T19:59:18.884Z,49.37
2019-03-04T20:01:48.455Z,49.39
2019-03-04T20:04:18.102Z,49.42
2019-03-04T20:06:47.694Z,49.68
2019-03-04T20:09:17.207Z,49.97
2019-03-04T20:15:36.597Z,49.97
2019-03-04T20:18:18.608Z,50.02
2019-03-04T20:21:07.770Z,50.02
2019-03-04T20:23:56.781Z,50.16
2019-03-04T20:26:45.678Z,50.02
2019-03-04T20:29:34.535Z,50.35
2019-03-04T20:32:23.342Z,50.09
2019-03-04T20:35:33.104Z,50.19
2019-03-04T20:38:42.865Z,50.45
2019-03-04T20:41:31.828Z,50.55
2019-03-04T20:44:20.682Z,50.50
2019-03-04T20:47:09.636Z,50.39
2019-03-04T20:49:59.547Z,50.30
2019-03-04T20:52:48.752Z,50.25
2019-03-04T20:55:37.642Z,50.31
2019-03-04T20:58:26.551Z,50.21
2019-03-04T21:04:11.130Z,50.42
2019-03-04T21:07:00.021Z,50.51
2019-03-04T21:09:49.040Z,51.69
2019-03-04T21:12:28.881Z,52.26
2019-03-04T21:15:38.652Z,52.59
2019-03-04T21:18:27.795Z,53.91
2019-03-04T21:21:16.591Z,54.11
2019-03-04T21:24:05.617Z,55.38
2019-03-04T21:26:54.432Z,56.05
2019-03-04T21:30:04.219Z,56.33
2019-03-04T21:32:53.220Z,56.83
2019-03-04T21:36:20.929Z,57.20
2019-03-04T21:43:01.021Z,57.89
2019-03-04T21:46:28.583Z,58.18
2019-03-04T21:49:17.539Z,58.76
2019-03-04T21:52:27.281Z,58.47
2019-03-04T21:55:37.009Z,58.94
2019-03-04T21:58:25.937Z,59.11
2019-03-04T22:01:35.789Z,59.35
2019-03-04T22:04:36.497Z,59.62
2019-03-04T22:07:16.121Z,59.88
2019-03-04T22:10:25.839Z,59.40
2019-03-04T22:13:07.497Z,60.02
2019-03-04T22:15:56.370Z,59.77
2019-03-04T22:18:45.220Z,59.86
2019-03-04T22:21:34.015Z,59.62
2019-03-04T22:24:22.931Z,60.04
2019-03-04T22:27:11.715Z,59.79
2019-03-04T22:30:00.523Z,59.71
2019-03-04T22:32:49.419Z,59.34
2019-03-04T22:35:38.316Z,59.13
2019-03-04T22:38:27.242Z,59.00
2019-03-04T22:41:16.061Z,58.99
2019-03-04T22:44:04.934Z,58.35
2019-03-04T22:46:53.798Z,58.48
2019-03-04T22:49:42.637Z,57.91
2019-03-04T22:52:31.535Z,57.82
2019-03-04T22:55:41.228Z,57.51
2019-03-04T22:58:30.129Z,57.17
2019-03-04T23:04:34.946Z,56.33
2019-03-04T23:07:23.774Z,56.37
2019-03-04T23:13:22.017Z,55.63
2019-03-04T23:19:25.920Z,55.25
2019-03-04T23:22:14.719Z,55.30
2019-03-04T23:28:18.544Z,54.51
2019-03-04T23:31:07.417Z,54.45
2019-03-04T23:33:56.253Z,54.27
2019-03-04T23:36:45.151Z,54.53
2019-03-04T23:39:33.998Z,54.25
2019-03-04T23:42:22.808Z,54.29
2019-03-04T23:48:27.785Z,53.93
2019-03-04T23:51:16.627Z,53.96
2019-03-04T23:54:05.561Z,53.43
2019-03-04T23:56:54.349Z,53.74
2019-03-04T23:59:43.212Z,53.51
